F/V Les Trois Freres — FGF2686 — position and weather

sailwx.info

Track history (hours):
 
Tides and Currents Weather Stations Pressure Air Temp Water Temp Dewpoint Dewpoint Depression Visibility Wind Speed Wind Dir Waves Ship Positions

F/V Les Trois Freres

Last reported at 2018-Jun-16 04:31 UTC. Time now 2018-Jun-18 13:08 UTC.
Position N 46°24' W 001°39'.

Length 12 m.

Type: Fishing. MMSI: 227704380.

Date/timePositionNaut miles runAvg speedWind from/ knotsBaromVisibWave heightAir tempDewpointWater temp
2018-Jun-16 04:31N 46°24' W 001°39'0 4.5
2018-Jun-16 04:28N 46°24' W 001°39'3 6.7
2018-Jun-16 04:00N 46°25' W 001°43'3 6.7
2018-Jun-16 03:30N 46°28' W 001°46'2 0.3
2018-Jun-15 20:10N 46°30' W 001°47'0 0.4
2018-Jun-15 20:00N 46°30' W 001°47'3 5.8
2018-Jun-15 19:30N 46°27' W 001°46'3 6.1
2018-Jun-15 19:00N 46°25' W 001°43'2 0.1
2018-Jun-15 03:43N 46°26' W 001°45'2 7.4
2018-Jun-15 03:30N 46°27' W 001°46'3 0.4
2018-Jun-14 20:36N 46°30' W 001°47'0 0.6
2018-Jun-14 20:28N 46°30' W 001°47'0 0.0
2018-Jun-14 20:00N 46°30' W 001°47'3 6.1
2018-Jun-14 19:30N 46°27' W 001°45'  
2018-Jun-08 13:56N 46°26' W 001°44'2 5.7
2018-Jun-08 13:30N 46°24' W 001°42'1 2.6
2018-Jun-08 13:00N 46°23' W 001°41'2 3.0
2018-Jun-08 12:28N 46°23' W 001°39'1 2.0
2018-Jun-08 12:00N 46°23' W 001°37'1 2.9
2018-Jun-08 11:30N 46°24' W 001°39'2 3.2
2018-Jun-08 11:00N 46°24' W 001°41'2 3.3
2018-Jun-08 10:30N 46°25' W 001°43'1 2.3
2018-Jun-08 10:00N 46°25' W 001°45'2 3.2
2018-Jun-08 09:30N 46°24' W 001°43'1 2.4
2018-Jun-08 09:00N 46°24' W 001°42'2 3.1
2018-Jun-08 08:30N 46°25' W 001°43'1 1.7
2018-Jun-08 08:00N 46°25' W 001°45'2 3.2
2018-Jun-08 07:30N 46°24' W 001°43'1 1.8
2018-Jun-08 06:59N 46°23' W 001°42'1 2.8
2018-Jun-08 06:30N 46°24' W 001°43'1 2.9
2018-Jun-08 06:00N 46°25' W 001°45'2 3.0
2018-Jun-08 05:30N 46°24' W 001°43'1 2.5
2018-Jun-08 05:00N 46°23' W 001°42'2 3.1
2018-Jun-08 04:30N 46°24' W 001°44'2 3.2
2018-Jun-08 04:00N 46°25' W 001°45'3 5.9
2018-Jun-08 03:30N 46°28' W 001°47'2 0.3
2018-Jun-07 20:23N 46°30' W 001°47'0 0.2
2018-Jun-07 20:00N 46°30' W 001°47'8 0.2
2018-Jun-06 11:01N 46°24' W 001°39'0 3.0
2018-Jun-06 11:00N 46°24' W 001°40'1 1.8
2018-Jun-06 10:29N 46°24' W 001°41'4 2.8
2018-Jun-06 09:08N 46°23' W 001°36'0 2.9
2018-Jun-06 09:00N 46°23' W 001°36'1 2.9
2018-Jun-06 08:30N 46°23' W 001°38'2 3.1
2018-Jun-06 08:00N 46°23' W 001°41'1 1.0
2018-Jun-06 07:30N 46°23' W 001°41'1 3.0
2018-Jun-06 07:00N 46°23' W 001°39'3 2.7
2018-Jun-06 05:48N 46°22' W 001°35'1 3.3
2018-Jun-06 05:30N 46°22' W 001°36'2 3.3
2018-Jun-06 05:00N 46°23' W 001°39'  
Track history (hours):
 
Tides and Currents Weather Stations Pressure Air Temp Water Temp Dewpoint Dewpoint Depression Visibility Wind Speed Wind Dir Waves Ship Positions

F/V Les Trois Freres

Last reported at 2018-Jun-16 04:31 UTC. Time now 2018-Jun-18 13:08 UTC.
Position N 46°24' W 001°39'.

Length 12 m.

Type: Fishing. MMSI: 227704380.

Date/timePositionNaut miles runAvg speedWind from/ knotsBaromVisibWave heightAir tempDewpointWater temp
2018-Jun-16 04:31N 46°24' W 001°39'0 4.5
2018-Jun-16 04:28N 46°24' W 001°39'3 6.7
2018-Jun-16 04:00N 46°25' W 001°43'3 6.7
2018-Jun-16 03:30N 46°28' W 001°46'2 0.3
2018-Jun-15 20:10N 46°30' W 001°47'0 0.4
2018-Jun-15 20:00N 46°30' W 001°47'3 5.8
2018-Jun-15 19:30N 46°27' W 001°46'3 6.1
2018-Jun-15 19:00N 46°25' W 001°43'2 0.1
2018-Jun-15 03:43N 46°26' W 001°45'2 7.4
2018-Jun-15 03:30N 46°27' W 001°46'3 0.4
2018-Jun-14 20:36N 46°30' W 001°47'0 0.6
2018-Jun-14 20:28N 46°30' W 001°47'0 0.0
2018-Jun-14 20:00N 46°30' W 001°47'3 6.1
2018-Jun-14 19:30N 46°27' W 001°45'  
2018-Jun-08 13:56N 46°26' W 001°44'2 5.7
2018-Jun-08 13:30N 46°24' W 001°42'1 2.6
2018-Jun-08 13:00N 46°23' W 001°41'2 3.0
2018-Jun-08 12:28N 46°23' W 001°39'1 2.0
2018-Jun-08 12:00N 46°23' W 001°37'1 2.9
2018-Jun-08 11:30N 46°24' W 001°39'2 3.2
2018-Jun-08 11:00N 46°24' W 001°41'2 3.3
2018-Jun-08 10:30N 46°25' W 001°43'1 2.3
2018-Jun-08 10:00N 46°25' W 001°45'2 3.2
2018-Jun-08 09:30N 46°24' W 001°43'1 2.4
2018-Jun-08 09:00N 46°24' W 001°42'2 3.1
2018-Jun-08 08:30N 46°25' W 001°43'1 1.7
2018-Jun-08 08:00N 46°25' W 001°45'2 3.2
2018-Jun-08 07:30N 46°24' W 001°43'1 1.8
2018-Jun-08 06:59N 46°23' W 001°42'1 2.8
2018-Jun-08 06:30N 46°24' W 001°43'1 2.9
2018-Jun-08 06:00N 46°25' W 001°45'2 3.0
2018-Jun-08 05:30N 46°24' W 001°43'1 2.5
2018-Jun-08 05:00N 46°23' W 001°42'2 3.1
2018-Jun-08 04:30N 46°24' W 001°44'2 3.2
2018-Jun-08 04:00N 46°25' W 001°45'3 5.9
2018-Jun-08 03:30N 46°28' W 001°47'2 0.3
2018-Jun-07 20:23N 46°30' W 001°47'0 0.2
2018-Jun-07 20:00N 46°30' W 001°47'8 0.2
2018-Jun-06 11:01N 46°24' W 001°39'0 3.0
2018-Jun-06 11:00N 46°24' W 001°40'1 1.8
2018-Jun-06 10:29N 46°24' W 001°41'4 2.8
2018-Jun-06 09:08N 46°23' W 001°36'0 2.9
2018-Jun-06 09:00N 46°23' W 001°36'1 2.9
2018-Jun-06 08:30N 46°23' W 001°38'2 3.1
2018-Jun-06 08:00N 46°23' W 001°41'1 1.0
2018-Jun-06 07:30N 46°23' W 001°41'1 3.0
2018-Jun-06 07:00N 46°23' W 001°39'3 2.7
2018-Jun-06 05:48N 46°22' W 001°35'1 3.3
2018-Jun-06 05:30N 46°22' W 001°36'2 3.3
2018-Jun-06 05:00N 46°23' W 001°39'  

Dump ship's entire track history